M I D A S
Marine Information and Data Acquisition System
Tripno 1645 of the Zeeleeuw from 2009-02-20 08:07:55 to 2009-02-20 15:34:15
Back to CruiseResearch ActivitiesStationsMapUnderway DataData graphs

EquipmentUnitsComment
TimeDGPSUTC
LatitudeDGPSDM.mWGS84
LongitudeDGPSDM.mWGS84
HeadingGyrodeg 
SOGDGPSknotsSpeed over ground
COGDGPSdegCourse over ground
DepthEcho soundermeters200 kHz
Missing or incorrect values are displayed as -999
Navigation data collected by the RV Zeeleeuw from 2009-02-20 07:52:33 to 2009-02-20 15:38:39
                                                                                    Next 1000 lines
Time Latitude Longitude Heading SOG COG Depth
2009-02-20 07:52:44 51°13.662 2°55.958 113 0.8 298 7.5
2009-02-20 07:52:48 51°13.663 2°55.956 112.9 1.1 295 7.4
2009-02-20 07:52:53 51°13.664 2°55.953 112.9 1.4 299 7.7
2009-02-20 07:52:59 51°13.665 2°55.949 113.4 1.8 294 7.5
2009-02-20 07:53:04 51°13.666 2°55.944 113.9 2.3 298 -999
2009-02-20 07:53:09 51°13.668 2°55.939 114.2 2.5 296 -999
2009-02-20 07:53:14 51°13.67 2°55.934 114.2 2.7 297 -999
2009-02-20 07:53:19 51°13.671 2°55.928 113.8 3 295 -999
2009-02-20 07:53:24 51°13.673 2°55.922 113.2 3.1 295 -999
2009-02-20 07:53:29 51°13.675 2°55.915 112.6 3.3 295 -999
2009-02-20 07:53:34 51°13.677 2°55.908 112 3.5 293 -999
2009-02-20 07:53:39 51°13.679 2°55.901 111.3 3.5 294 -999
2009-02-20 07:53:44 51°13.681 2°55.894 110.8 3.5 293 -999
2009-02-20 07:53:49 51°13.682 2°55.887 110.3 3.4 291 -999
2009-02-20 07:53:54 51°13.684 2°55.88 109.5 3.4 291 -999
2009-02-20 07:53:59 51°13.686 2°55.873 108.6 3.4 289 -999
2009-02-20 07:54:04 51°13.687 2°55.866 107.5 3.4 289 -999
2009-02-20 07:54:09 51°13.689 2°55.858 106.5 3.5 288 -999
2009-02-20 07:54:14 51°13.69 2°55.851 105.4 3.5 287 -999
2009-02-20 07:54:19 51°13.691 2°55.843 104.4 3.5 286 -999
2009-02-20 07:54:24 51°13.693 2°55.836 103.3 3.5 285 -999
2009-02-20 07:54:29 51°13.694 2°55.829 102.1 3.5 284 48.8
2009-02-20 07:54:34 51°13.695 2°55.821 101 3.4 283 -999
2009-02-20 07:54:39 51°13.696 2°55.814 99.6 3.4 282 -999
2009-02-20 07:54:44 51°13.697 2°55.806 98.4 3.4 280 -999
2009-02-20 07:54:49 51°13.698 2°55.799 96.9 3.4 279 -999
2009-02-20 07:54:54 51°13.698 2°55.791 95.2 3.3 277 -999
2009-02-20 07:54:59 51°13.698 2°55.784 93.4 3.1 275 -999
2009-02-20 07:55:04 51°13.699 2°55.778 91.7 3 273 -999
2009-02-20 07:55:09 51°13.699 2°55.771 90.1 2.9 272 -999
2009-02-20 07:55:14 51°13.699 2°55.765 88.5 2.8 270 46.1
2009-02-20 07:55:19 51°13.699 2°55.759 86.9 2.7 268 -999
2009-02-20 07:55:24 51°13.698 2°55.754 85.4 2.5 267 12.5
2009-02-20 07:55:28 51°13.698 2°55.749 84.3 2.3 266 12.5
2009-02-20 07:55:33 51°13.698 2°55.745 83.1 1.8 266 4.9
2009-02-20 07:55:39 51°13.698 2°55.741 81.5 1.3 266 -999
2009-02-20 07:55:44 51°13.698 2°55.739 79.6 0.9 264 -999
2009-02-20 07:55:49 51°13.698 2°55.738 76.2 0.6 275 -999
2009-02-20 07:55:54 51°13.698 2°55.738 71.9 0.1 311 -999
2009-02-20 07:55:59 51°13.698 2°55.738 68.7 0.3 35 12.6
2009-02-20 07:56:04 51°13.699 2°55.739 65 0.5 46 -999
2009-02-20 07:56:09 51°13.699 2°55.74 59.9 0.7 43 12.6
2009-02-20 07:56:13 51°13.7 2°55.741 55.3 0.9 47 12.6
2009-02-20 07:56:19 51°13.701 2°55.743 51.6 1 41 12.6
2009-02-20 07:56:24 51°13.702 2°55.744 48 1.1 40 12.6
2009-02-20 07:56:29 51°13.704 2°55.746 43.4 1.1 36 12.6
2009-02-20 07:56:33 51°13.704 2°55.746 38.1 0.8 34 12.6
2009-02-20 07:56:39 51°13.705 2°55.747 35.5 0.4 43 12.6
2009-02-20 07:56:44 51°13.705 2°55.748 32.7 0.1 167 12.6
2009-02-20 07:56:48 51°13.704 2°55.747 29.7 0.5 203 12.5
2009-02-20 07:56:54 51°13.703 2°55.746 26.8 0.9 198 12.5
2009-02-20 07:56:59 51°13.701 2°55.745 24.4 1.3 202 12.6
2009-02-20 07:57:04 51°13.699 2°55.744 22.3 1.5 200 12.6
2009-02-20 07:57:08 51°13.698 2°55.743 20.5 1.4 199 12.6
2009-02-20 07:57:14 51°13.696 2°55.742 18.9 1.3 199 -999
2009-02-20 07:57:19 51°13.694 2°55.741 17.5 1.2 196 -999
2009-02-20 07:57:24 51°13.693 2°55.741 16.4 0.8 199 -999
2009-02-20 07:57:29 51°13.693 2°55.74 14.8 0.2 230 -999
2009-02-20 07:57:33 51°13.694 2°55.741 12.4 0.5 352 4.9
2009-02-20 07:57:39 51°13.696 2°55.74 7.3 1.4 358 4.8
2009-02-20 07:57:44 51°13.698 2°55.74 3.8 1.8 353 4.9
2009-02-20 07:57:49 51°13.701 2°55.738 356.7 2.2 345 4.8
2009-02-20 07:57:53 51°13.704 2°55.737 350.1 2.6 343 5
2009-02-20 07:57:59 51°13.708 2°55.734 345.3 2.9 337 5
2009-02-20 07:58:04 51°13.712 2°55.731 341.3 3.5 334 12.6
2009-02-20 07:58:08 51°13.716 2°55.728 338 4.1 333 12.6
2009-02-20 07:58:13 51°13.722 2°55.723 335.1 4.6 329 12.6
2009-02-20 07:58:19 51°13.729 2°55.716 331.1 5 329 12.6
2009-02-20 07:58:24 51°13.735 2°55.71 329.4 5.2 330 12.4
2009-02-20 07:58:29 51°13.742 2°55.704 330.2 5.6 331 12.4
2009-02-20 07:58:33 51°13.747 2°55.699 331.5 5.8 331 12.4
2009-02-20 07:58:39 51°13.756 2°55.692 332.6 6 331 12.2
2009-02-20 07:58:44 51°13.764 2°55.685 333 6.2 331 11.9
2009-02-20 07:58:49 51°13.772 2°55.679 333.1 6.4 333 11.7
2009-02-20 07:58:54 51°13.78 2°55.672 334 6.5 332 11.7
2009-02-20 07:58:59 51°13.788 2°55.665 334.4 6.7 333 11.7
2009-02-20 07:59:04 51°13.797 2°55.659 334.7 6.9 334 11.7
2009-02-20 07:59:08 51°13.803 2°55.653 334.7 7 334 11.7
2009-02-20 07:59:14 51°13.814 2°55.645 335 5.3 335 11.7
2009-02-20 07:59:19 51°13.822 2°55.638 335.5 6.9 335 11.7
2009-02-20 07:59:24 51°13.831 2°55.631 336 5.5 336 11.7
2009-02-20 07:59:28 51°13.838 2°55.626 336.5 7 335 11.6
2009-02-20 07:59:33 51°13.848 2°55.619 336.6 7.3 336 11.6
2009-02-20 07:59:39 51°13.859 2°55.611 336.9 7.4 336 11.7
2009-02-20 07:59:44 51°13.869 2°55.605 337.3 7.4 337 11.7
2009-02-20 07:59:48 51°13.876 2°55.6 337.7 7.5 337 11.7
2009-02-20 07:59:53 51°13.886 2°55.595 337.9 7.5 339 11.7
2009-02-20 07:59:59 51°13.898 2°55.587 338.4 7.5 337 11.7
2009-02-20 08:00:04 51°13.908 2°55.581 338.4 7.5 337 11.8
2009-02-20 08:00:08 51°13.915 2°55.575 338.5 7.6 337 11.8
2009-02-20 08:00:13 51°13.925 2°55.569 338.6 7.7 337 11.8
2009-02-20 08:00:18 51°13.935 2°55.561 338.1 7.8 336 11.8
2009-02-20 08:00:24 51°13.947 2°55.553 337.6 7.9 336 11.8
2009-02-20 08:00:29 51°13.957 2°55.546 337.4 7.9 336 11.8
2009-02-20 08:00:33 51°13.965 2°55.54 337.5 8 337 11.8
2009-02-20 08:00:39 51°13.977 2°55.532 337.9 8.1 337 11.8
2009-02-20 08:00:44 51°13.987 2°55.525 338 8.1 338 11.8
2009-02-20 08:00:49 51°13.998 2°55.518 338 8.1 337 11.8
2009-02-20 08:00:54 51°14.008 2°55.511 337.9 8.2 338 11.8
2009-02-20 08:00:59 51°14.019 2°55.504 337.9 8.2 337 11.7
2009-02-20 08:01:04 51°14.029 2°55.497 338.1 8.2 335 11.7
2009-02-20 08:01:09 51°14.04 2°55.49 337.4 8.2 338 11.7
2009-02-20 08:01:13 51°14.048 2°55.484 337.7 8.3 336 11.7
2009-02-20 08:01:19 51°14.061 2°55.475 337.6 8.2 336 11.7
2009-02-20 08:01:24 51°14.071 2°55.467 337.4 8.3 335 11.6
2009-02-20 08:01:28 51°14.079 2°55.461 337.4 8.3 337 11.7
2009-02-20 08:01:34 51°14.092 2°55.452 337.5 8.4 335 11.6
2009-02-20 08:01:39 51°14.103 2°55.445 337.6 8.5 336 11.6
2009-02-20 08:01:44 51°14.114 2°55.437 337.6 8.5 335 11.7
2009-02-20 08:01:48 51°14.122 2°55.431 337.4 8.6 337 11.7
2009-02-20 08:01:53 51°14.133 2°55.423 337.5 8.6 334 11.6
2009-02-20 08:01:59 51°14.146 2°55.413 336.5 8.6 334 11.6
2009-02-20 08:02:04 51°14.156 2°55.404 335.4 8.6 332 11.6
2009-02-20 08:02:08 51°14.165 2°55.397 334.1 8.6 331 11.6
2009-02-20 08:02:13 51°14.175 2°55.387 332.5 8.5 328 11.7
2009-02-20 08:02:19 51°14.187 2°55.374 330.2 8.6 326 11.7
2009-02-20 08:02:24 51°14.196 2°55.362 327.4 8.6 323 11.7
2009-02-20 08:02:29 51°14.206 2°55.351 325.7 8.7 324 11.6
2009-02-20 08:02:33 51°14.213 2°55.341 325.1 8.8 321 11.7
2009-02-20 08:02:39 51°14.225 2°55.327 323.2 8.8 320 11.7
2009-02-20 08:02:44 51°14.234 2°55.313 321.6 8.9 318 11.7
2009-02-20 08:02:49 51°14.243 2°55.299 319.8 9 316 11.7
2009-02-20 08:02:53 51°14.249 2°55.288 317.6 9.1 313 11.7
2009-02-20 08:02:59 51°14.26 2°55.271 316.3 9.1 314 11.8
2009-02-20 08:03:04 51°14.268 2°55.255 315.1 9.2 309 11.8
2009-02-20 08:03:09 51°14.277 2°55.239 312.8 9.4 311 11.8
2009-02-20 08:03:13 51°14.283 2°55.226 311.5 9.7 308 11.8
2009-02-20 08:03:19 51°14.293 2°55.205 309.5 9.9 309 11.8
2009-02-20 08:03:24 51°14.302 2°55.187 308.6 10.1 309 11.8
2009-02-20 08:03:29 51°14.312 2°55.17 309.8 10.3 312 11.8
2009-02-20 08:03:33 51°14.319 2°55.156 312.1 10.5 311 11.8
2009-02-20 08:03:39 51°14.331 2°55.136 313.3 10.6 314 11.8
2009-02-20 08:03:44 51°14.34 2°55.117 313.4 10.8 309 11.8
2009-02-20 08:03:48 51°14.349 2°55.103 312.3 11 311 11.9
2009-02-20 08:03:54 51°14.359 2°55.078 310.7 11.1 305 11.9
2009-02-20 08:03:59 51°14.369 2°55.059 308.1 11.3 308 11.9
2009-02-20 08:04:04 51°14.378 2°55.039 306.1 11.3 307 11.9
2009-02-20 08:04:08 51°14.387 2°55.024 306.4 11.5 312 11.9
2009-02-20 08:04:13 51°14.397 2°55.004 308.3 11.5 309 11.9
2009-02-20 08:04:19 51°14.41 2°54.981 308.3 11.6 311 11.9
2009-02-20 08:04:24 51°14.419 2°54.961 307.8 11.5 307 12
2009-02-20 08:04:28 51°14.427 2°54.945 306.9 11.6 307 12.1
2009-02-20 08:04:33 51°14.437 2°54.924 305.5 11.7 306 12.3
2009-02-20 08:04:39 51°14.449 2°54.899 304.4 11.8 307 12.3
2009-02-20 08:04:44 51°14.458 2°54.878 304.3 11.8 307 12.3
2009-02-20 08:04:49 51°14.468 2°54.857 304.8 11.8 307 12.3
2009-02-20 08:04:53 51°14.476 2°54.841 305.4 11.8 307 12.4
2009-02-20 08:04:59 51°14.488 2°54.816 304.8 11.8 308 12.4
2009-02-20 08:05:04 51°14.5 2°54.797 305.7 11.8 314 12.4
2009-02-20 08:05:09 51°14.511 2°54.779 309.9 11.8 314 12.3
2009-02-20 08:05:13 51°14.521 2°54.765 312.2 11.8 319 12.3
2009-02-20 08:05:19 51°14.536 2°54.745 315.5 11.9 320 12.1
2009-02-20 08:05:24 51°14.55 2°54.729 317.9 12 324 12
2009-02-20 08:05:29 51°14.563 2°54.714 319.9 12 325 11.9
2009-02-20 08:05:33 51°14.575 2°54.703 322 12 329 11.8
2009-02-20 08:05:39 51°14.592 2°54.687 325.6 12 330 11.7
2009-02-20 08:05:44 51°14.607 2°54.675 328.2 12.1 333 11.8
2009-02-20 08:05:49 51°14.622 2°54.663 329.9 12.1 335 11.6
2009-02-20 08:05:54 51°14.637 2°54.652 331.6 12.1 334 11.6
2009-02-20 08:05:59 51°14.653 2°54.641 333.1 12.2 336 11.6
2009-02-20 08:06:04 51°14.669 2°54.631 334.3 12.2 337 11.6
2009-02-20 08:06:08 51°14.681 2°54.623 335.2 12.2 338 11.7
2009-02-20 08:06:14 51°14.7 2°54.611 335.8 12.2 338 11.7
2009-02-20 08:06:19 51°14.716 2°54.601 336.5 12.2 339 11.6
2009-02-20 08:06:24 51°14.732 2°54.591 337.3 12.2 339 11.7
2009-02-20 08:06:28 51°14.745 2°54.584 337.5 12.3 339 11.7
2009-02-20 08:06:33 51°14.761 2°54.574 337.6 12.3 339 11.5
2009-02-20 08:06:39 51°14.78 2°54.562 337.6 12.2 338 11.5
2009-02-20 08:06:44 51°14.796 2°54.552 337.2 12.2 339 11.5
2009-02-20 08:06:48 51°14.808 2°54.544 337.2 12.2 338 11.4
2009-02-20 08:06:53 51°14.824 2°54.534 336.7 12.2 338 11.4
2009-02-20 08:06:59 51°14.842 2°54.521 336.1 12.2 337 11.4
2009-02-20 08:07:04 51°14.858 2°54.511 335.7 12.3 337 11.5
2009-02-20 08:07:09 51°14.874 2°54.501 335.7 12.2 338 11.3
2009-02-20 08:07:13 51°14.887 2°54.493 336.5 12.3 339 11.4
2009-02-20 08:07:19 51°14.906 2°54.481 337.6 12.3 339 11.5
2009-02-20 08:07:24 51°14.922 2°54.471 337.8 12.3 339 11.7
2009-02-20 08:07:28 51°14.934 2°54.463 337.6 12.3 338 12.2
2009-02-20 08:07:33 51°14.95 2°54.453 337.2 12.3 339 12.3
2009-02-20 08:07:39 51°14.969 2°54.441 337.2 12.3 338 12.8
2009-02-20 08:07:44 51°14.985 2°54.431 337.3 12.4 338 13.2
2009-02-20 08:07:49 51°15.001 2°54.42 337.3 12.4 337 13.2
2009-02-20 08:07:53 51°15.014 2°54.413 337 12.3 338 13
2009-02-20 08:07:59 51°15.033 2°54.4 336.6 12.3 337 12.8
2009-02-20 08:08:04 51°15.049 2°54.389 336.1 12.3 336 13.2
2009-02-20 08:08:09 51°15.064 2°54.378 335.4 12.3 335 13.1
2009-02-20 08:08:14 51°15.079 2°54.366 334.7 12.3 336 12.9
2009-02-20 08:08:19 51°15.094 2°54.353 334.1 12.3 333 12.9
2009-02-20 08:08:24 51°15.109 2°54.341 333 12.2 333 12.9
2009-02-20 08:08:28 51°15.121 2°54.331 332.3 12.3 332 13.1
2009-02-20 08:08:34 51°15.139 2°54.315 331.5 12.2 332 13.2
2009-02-20 08:08:39 51°15.154 2°54.302 331 12.2 331 13.2
2009-02-20 08:08:44 51°15.169 2°54.289 330.6 12.2 331 13.3
2009-02-20 08:08:48 51°15.181 2°54.279 330.3 12.2 331 13.2
2009-02-20 08:08:53 51°15.196 2°54.266 330.2 12.2 331 13.3
2009-02-20 08:08:59 51°15.213 2°54.249 330.2 12.2 330 13.4
2009-02-20 08:09:04 51°15.228 2°54.236 329.9 12.2 331 13.3
2009-02-20 08:09:09 51°15.243 2°54.223 329.9 12.2 331 13.3
2009-02-20 08:09:13 51°15.255 2°54.213 329.9 12.1 331 13.3
2009-02-20 08:09:19 51°15.272 2°54.198 330 12.1 332 13.1
2009-02-20 08:09:24 51°15.287 2°54.185 330.4 12.2 332 12.3
2009-02-20 08:09:28 51°15.299 2°54.175 330.9 12.1 332 12.2
2009-02-20 08:09:33 51°15.314 2°54.162 331.2 12.1 332 11.5
2009-02-20 08:09:39 51°15.332 2°54.148 331.3 12.1 333 11.6
2009-02-20 08:09:44 51°15.347 2°54.135 331.6 12.2 333 11.5
2009-02-20 08:09:49 51°15.362 2°54.124 332 12.1 334 11.3
2009-02-20 08:09:53 51°15.374 2°54.114 332.4 12.2 334 11.3
2009-02-20 08:09:59 51°15.392 2°54.1 332.5 12.2 334 11.4
2009-02-20 08:10:04 51°15.407 2°54.088 332.6 12.2 334 11.4
2009-02-20 08:10:09 51°15.423 2°54.076 332.5 12.2 334 11.6
2009-02-20 08:10:14 51°15.438 2°54.064 332.3 12.1 334 11.6
2009-02-20 08:10:19 51°15.453 2°54.052 332.5 12.1 333 11.8
2009-02-20 08:10:24 51°15.468 2°54.04 332.3 12.2 334 11.8
2009-02-20 08:10:28 51°15.48 2°54.03 332.3 12.1 333 11.8
2009-02-20 08:10:34 51°15.498 2°54.016 332.5 12.2 334 11.9
2009-02-20 08:10:39 51°15.513 2°54.004 332.6 12.2 334 11.9
2009-02-20 08:10:44 51°15.528 2°53.992 332.6 12.2 333 11.9
2009-02-20 08:10:48 51°15.54 2°53.982 332 12.1 332 12
2009-02-20 08:10:54 51°15.558 2°53.967 331.5 12.1 333 12.1
2009-02-20 08:10:59 51°15.573 2°53.955 331.2 12.1 332 12.1
2009-02-20 08:11:04 51°15.588 2°53.942 331.2 12.2 332 12.2
2009-02-20 08:11:09 51°15.603 2°53.93 331.3 12.2 332 12.3
2009-02-20 08:11:13 51°15.615 2°53.92 331.3 12.1 332 12.3
2009-02-20 08:11:19 51°15.633 2°53.906 331.1 12.1 332 12.5
2009-02-20 08:11:24 51°15.648 2°53.893 331.1 12.2 332 12.5
2009-02-20 08:11:28 51°15.66 2°53.883 331.2 12.2 332 12.6
2009-02-20 08:11:33 51°15.675 2°53.871 331.1 12.2 332 12.5
2009-02-20 08:11:39 51°15.693 2°53.855 331 12.1 332 12.5
2009-02-20 08:11:44 51°15.708 2°53.842 331.1 12.2 331 12.6
2009-02-20 08:11:48 51°15.72 2°53.832 330.5 12.2 331 12.6
2009-02-20 08:11:53 51°15.735 2°53.819 330 12.2 332 12.8
2009-02-20 08:11:58 51°15.749 2°53.806 330 12.2 332 12.9
2009-02-20 08:12:04 51°15.767 2°53.791 330.1 12.2 332 12.8
2009-02-20 08:12:09 51°15.782 2°53.778 330.5 12.2 332 12.8
2009-02-20 08:12:13 51°15.794 2°53.769 331.1 12.2 333 12.9
2009-02-20 08:12:19 51°15.813 2°53.754 331.5 12.2 333 13
2009-02-20 08:12:24 51°15.828 2°53.742 332 12.2 333 13.1
2009-02-20 08:12:29 51°15.843 2°53.729 332.2 12.2 332 13
2009-02-20 08:12:34 51°15.857 2°53.717 331.3 12.2 332 13.1
2009-02-20 08:12:39 51°15.872 2°53.703 330.4 12.1 331 13
2009-02-20 08:12:44 51°15.887 2°53.691 330.1 12.2 331 13.1
2009-02-20 08:12:48 51°15.899 2°53.68 329.6 12.2 331 12.9
2009-02-20 08:12:54 51°15.917 2°53.665 329.8 12.1 332 12.9
2009-02-20 08:12:59 51°15.931 2°53.652 330.7 12.2 331 13.1
2009-02-20 08:13:04 51°15.946 2°53.639 330.8 12.2 331 13.1
2009-02-20 08:13:08 51°15.958 2°53.629 330.3 12.1 331 13.2
2009-02-20 08:13:14 51°15.975 2°53.613 330.1 12.1 330 13.3
2009-02-20 08:13:19 51°15.99 2°53.6 329.6 12.1 331 13.2
2009-02-20 08:13:24 51°16.005 2°53.588 329.7 12.1 332 13.2
2009-02-20 08:13:28 51°16.017 2°53.577 330.4 12.2 332 13.3
2009-02-20 08:13:33 51°16.032 2°53.564 330.8 12.1 331 13.3
2009-02-20 08:13:39 51°16.05 2°53.549 330.6 12.2 331 13.3
2009-02-20 08:13:44 51°16.064 2°53.536 330.5 12.1 332 13.3
2009-02-20 08:13:48 51°16.076 2°53.526 330.4 12.1 331 13.2
2009-02-20 08:13:53 51°16.091 2°53.513 330.3 12.1 331 13.3
2009-02-20 08:13:58 51°16.106 2°53.5 330 12.1 331 13.3
2009-02-20 08:14:04 51°16.123 2°53.484 329.9 12.1 331 13.4
2009-02-20 08:14:09 51°16.138 2°53.472 330.1 12.2 332 13.4
2009-02-20 08:14:13 51°16.15 2°53.461 330.3 12.1 332 13.3
2009-02-20 08:14:19 51°16.168 2°53.447 330.4 12.1 332 13.3
2009-02-20 08:14:24 51°16.183 2°53.434 330.6 12.2 332 13.4
2009-02-20 08:14:29 51°16.198 2°53.422 330.6 12.2 333 13.5
2009-02-20 08:14:34 51°16.213 2°53.41 331.2 12.2 333 13.4
2009-02-20 08:14:39 51°16.228 2°53.398 332 12.2 334 13.5
2009-02-20 08:14:44 51°16.243 2°53.387 332.6 12.2 334 13.5
2009-02-20 08:14:49 51°16.259 2°53.376 333.1 12.2 336 13.6
2009-02-20 08:14:54 51°16.274 2°53.364 333.9 12.2 335 13.6
2009-02-20 08:14:59 51°16.29 2°53.352 334.3 12.2 334 13.5
2009-02-20 08:15:04 51°16.305 2°53.34 333.8 12.2 334 13.5
2009-02-20 08:15:08 51°16.317 2°53.331 333.2 12.2 334 13.5
2009-02-20 08:15:14 51°16.335 2°53.316 333 12.2 334 13.6
2009-02-20 08:15:19 51°16.35 2°53.304 332.5 12.2 333 13.6
2009-02-20 08:15:24 51°16.365 2°53.292 332.1 12.3 333 13.6
2009-02-20 08:15:28 51°16.377 2°53.281 331.4 12.2 331 13.6
2009-02-20 08:15:34 51°16.395 2°53.266 330.3 12.2 332 13.6
2009-02-20 08:15:39 51°16.41 2°53.253 329.9 12.1 331 13.6
2009-02-20 08:15:44 51°16.424 2°53.24 329.6 12.2 330 13.6
2009-02-20 08:15:48 51°16.435 2°53.228 328.9 12.1 330 13.6
2009-02-20 08:15:53 51°16.45 2°53.214 328.5 12.1 329 13.6
2009-02-20 08:15:58 51°16.464 2°53.201 328 12.1 330 13.6
2009-02-20 08:16:04 51°16.482 2°53.185 328 12 330 13.5
2009-02-20 08:16:08 51°16.493 2°53.175 328.6 11.9 331 13.6
2009-02-20 08:16:13 51°16.508 2°53.162 329 12 331 13.6
2009-02-20 08:16:19 51°16.525 2°53.147 329.3 12 331 13.6
2009-02-20 08:16:24 51°16.54 2°53.134 329.5 11.9 331 13.5
2009-02-20 08:16:29 51°16.554 2°53.121 329.6 12 331 13.5
2009-02-20 08:16:34 51°16.569 2°53.108 329.7 11.9 331 13.5
2009-02-20 08:16:39 51°16.583 2°53.095 329.7 12 331 13.5
2009-02-20 08:16:44 51°16.598 2°53.082 329.6 12 331 13.4
2009-02-20 08:16:49 51°16.612 2°53.07 329.9 12 332 13.5
2009-02-20 08:16:54 51°16.627 2°53.058 330.2 12 331 13.4
2009-02-20 08:16:59 51°16.642 2°53.046 330.2 12 332 13.4
2009-02-20 08:17:04 51°16.657 2°53.033 330.5 12 332 13.4
2009-02-20 08:17:09 51°16.671 2°53.02 330.4 12 332 13.3
2009-02-20 08:17:13 51°16.683 2°53.01 330.4 11.9 331 13.3
2009-02-20 08:17:19 51°16.701 2°52.995 330.2 12 331 13.2
2009-02-20 08:17:24 51°16.716 2°52.983 329.9 12 332 13.1
2009-02-20 08:17:28 51°16.728 2°52.973 330.1 12.1 333 12.9
2009-02-20 08:17:34 51°16.745 2°52.958 331.1 12.1 333 12.8
2009-02-20 08:17:39 51°16.76 2°52.946 331.4 12.1 333 12.6
2009-02-20 08:17:44 51°16.775 2°52.933 331.7 12.1 332 12.4
2009-02-20 08:17:48 51°16.787 2°52.923 331.2 12 331 12
2009-02-20 08:17:54 51°16.804 2°52.907 330.6 12 331 11.6
2009-02-20 08:17:59 51°16.818 2°52.895 330.1 11.9 331 11.3
2009-02-20 08:18:04 51°16.833 2°52.882 330.1 11.9 331 11.1
2009-02-20 08:18:08 51°16.844 2°52.871 330.4 11.9 331 11
2009-02-20 08:18:13 51°16.858 2°52.858 330.4 11.9 331 11
2009-02-20 08:18:18 51°16.873 2°52.846 330.7 12 331 11
2009-02-20 08:18:24 51°16.89 2°52.83 330.9 11.9 331 10.9
2009-02-20 08:18:29 51°16.905 2°52.817 330.6 11.9 331 11.1
2009-02-20 08:18:33 51°16.916 2°52.807 330.3 12 331 11.1
2009-02-20 08:18:39 51°16.934 2°52.791 330.3 12 331 11.3
2009-02-20 08:18:44 51°16.948 2°52.779 330.2 12 331 11.2
2009-02-20 08:18:49 51°16.963 2°52.765 330 12 330 11.3
2009-02-20 08:18:54 51°16.977 2°52.753 329.9 12 331 11.3
2009-02-20 08:18:59 51°16.992 2°52.74 330.1 12 331 11.5
2009-02-20 08:19:04 51°17.007 2°52.727 330.4 12 330 11.6
2009-02-20 08:19:09 51°17.021 2°52.713 329.8 12 330 11.7
2009-02-20 08:19:13 51°17.032 2°52.703 329.3 12 330 11.9
2009-02-20 08:19:19 51°17.05 2°52.687 329.6 12 331 11.9
2009-02-20 08:19:24 51°17.064 2°52.674 330.4 12.1 330 11.9
2009-02-20 08:19:29 51°17.079 2°52.661 330.5 12 330 11.7
2009-02-20 08:19:34 51°17.093 2°52.647 330.3 12 330 11.5
2009-02-20 08:19:39 51°17.108 2°52.634 330.1 12 329 11.4
2009-02-20 08:19:44 51°17.122 2°52.62 329.3 12 329 11.4
2009-02-20 08:19:48 51°17.133 2°52.609 328.6 12 328 11.4
2009-02-20 08:19:54 51°17.15 2°52.592 328.2 12 328 11.4
2009-02-20 08:19:59 51°17.164 2°52.577 327.8 12 326 11.4
2009-02-20 08:20:04 51°17.178 2°52.562 326.8 12 326 11.6
2009-02-20 08:20:08 51°17.188 2°52.549 325.6 12 325 11.5
2009-02-20 08:20:13 51°17.202 2°52.534 324.9 12 324 11.6
2009-02-20 08:20:19 51°17.218 2°52.515 324.1 12 323 11.7
2009-02-20 08:20:24 51°17.231 2°52.499 323.1 12.1 323 11.8
2009-02-20 08:20:29 51°17.244 2°52.483 322.6 12 323 11.9
2009-02-20 08:20:33 51°17.255 2°52.47 322.1 12 322 11.9
2009-02-20 08:20:39 51°17.271 2°52.45 321.6 12 322 12
2009-02-20 08:20:44 51°17.284 2°52.433 321.6 11.9 320 12
2009-02-20 08:20:49 51°17.297 2°52.416 320.7 12 320 12
2009-02-20 08:20:53 51°17.307 2°52.402 319.7 12 320 12.1
2009-02-20 08:20:59 51°17.322 2°52.381 319.2 12 319 12.3
2009-02-20 08:21:04 51°17.335 2°52.364 318.5 12 319 12.2
2009-02-20 08:21:09 51°17.347 2°52.347 318 12 319 12.4
2009-02-20 08:21:13 51°17.357 2°52.332 317.8 12.1 318 12.3
2009-02-20 08:21:19 51°17.372 2°52.311 317.6 12.1 318 12.2
2009-02-20 08:21:24 51°17.385 2°52.294 317.3 12 319 12.2
2009-02-20 08:21:29 51°17.397 2°52.276 317.4 12 319 12.1
2009-02-20 08:21:33 51°17.407 2°52.262 317.6 12 318 12.2
2009-02-20 08:21:39 51°17.422 2°52.24 317.4 12 319 12.3
2009-02-20 08:21:44 51°17.435 2°52.223 317.3 12 319 12.3
2009-02-20 08:21:49 51°17.447 2°52.205 317.5 12.1 319 12.3
2009-02-20 08:21:54 51°17.46 2°52.187 317.5 12 319 12.3
2009-02-20 08:21:59 51°17.472 2°52.17 317.8 12.1 318 12.3
2009-02-20 08:22:04 51°17.485 2°52.152 317.7 12.1 319 12.2
2009-02-20 08:22:08 51°17.495 2°52.138 317.9 12.1 318 12.4
2009-02-20 08:22:14 51°17.51 2°52.116 318 12 318 12.3
2009-02-20 08:22:19 51°17.522 2°52.098 317.7 12 318 12.4
2009-02-20 08:22:24 51°17.534 2°52.08 317.4 12 317 12.3
2009-02-20 08:22:28 51°17.544 2°52.066 317.2 12.1 317 12.3
2009-02-20 08:22:34 51°17.559 2°52.044 317.1 12.1 317 12.3
2009-02-20 08:22:39 51°17.571 2°52.026 316.9 12.1 317 12.3
2009-02-20 08:22:44 51°17.584 2°52.008 316.9 12.1 317 12.4
2009-02-20 08:22:48 51°17.594 2°51.994 316.9 12.1 318 12.2
2009-02-20 08:22:53 51°17.606 2°51.976 317.5 12.1 318 12.1
2009-02-20 08:22:58 51°17.619 2°51.958 317.6 12.1 318 12.1
2009-02-20 08:23:04 51°17.633 2°51.936 317.7 12.1 318 12.1
2009-02-20 08:23:08 51°17.643 2°51.921 317.7 12.1 317 12.3
2009-02-20 08:23:13 51°17.655 2°51.903 317.2 12.1 318 12.2
2009-02-20 08:23:18 51°17.668 2°51.885 317.2 12.1 317 12.1
2009-02-20 08:23:24 51°17.682 2°51.863 316.9 12.1 317 12.1
2009-02-20 08:23:28 51°17.692 2°51.849 316.9 12.1 317 12.1
2009-02-20 08:23:33 51°17.704 2°51.83 317.1 12.1 317 11.9
2009-02-20 08:23:38 51°17.717 2°51.812 317.1 12.1 317 12
2009-02-20 08:23:44 51°17.731 2°51.79 317.1 12.1 317 11.9
2009-02-20 08:23:48 51°17.741 2°51.775 317.1 12.1 317 12
2009-02-20 08:23:53 51°17.754 2°51.757 317.1 12.1 317 12
2009-02-20 08:23:58 51°17.766 2°51.739 317.1 12.1 317 12
2009-02-20 08:24:03 51°17.778 2°51.72 317.1 12.1 317 12
2009-02-20 08:24:08 51°17.79 2°51.702 317.2 12.1 317 12
2009-02-20 08:24:13 51°17.803 2°51.684 317.3 12.1 317 12
2009-02-20 08:24:18 51°17.815 2°51.666 317.5 12 318 12
2009-02-20 08:24:23 51°17.828 2°51.648 317.7 12.1 318 11.9
2009-02-20 08:24:28 51°17.84 2°51.63 317.9 12.1 318 12.1
2009-02-20 08:24:33 51°17.853 2°51.612 318.2 12 317 12.1
2009-02-20 08:24:38 51°17.865 2°51.594 317.8 12.1 317 12.1
2009-02-20 08:24:43 51°17.877 2°51.576 317.4 12.1 317 12.2
2009-02-20 08:24:48 51°17.889 2°51.558 317.4 12.1 317 12.2
2009-02-20 08:24:53 51°17.902 2°51.54 317.5 12.1 317 12.2
2009-02-20 08:24:58 51°17.914 2°51.522 317.5 12.1 317 12.3
2009-02-20 08:25:03 51°17.926 2°51.503 317.4 12.1 318 12.4
2009-02-20 08:25:08 51°17.939 2°51.486 317.6 12.1 318 12.4
2009-02-20 08:25:13 51°17.951 2°51.467 317.9 12.1 318 12.5
2009-02-20 08:25:18 51°17.964 2°51.449 317.9 12.1 318 12.6
2009-02-20 08:25:24 51°17.978 2°51.428 317.9 12.1 317 12.6
2009-02-20 08:25:28 51°17.988 2°51.413 317.9 12.1 317 12.8
2009-02-20 08:25:33 51°18.001 2°51.395 317.8 12.1 317 12.9
2009-02-20 08:25:38 51°18.013 2°51.377 317.6 12.1 318 13
2009-02-20 08:25:44 51°18.028 2°51.355 317.7 12.1 318 13
2009-02-20 08:25:48 51°18.038 2°51.341 317.8 12.1 317 13.2
2009-02-20 08:25:53 51°18.05 2°51.323 317.8 12.1 317 13.3
2009-02-20 08:25:58 51°18.063 2°51.305 317.8 12.1 317 13.3
2009-02-20 08:26:04 51°18.077 2°51.283 317.8 12 318 13.5
2009-02-20 08:26:08 51°18.087 2°51.269 318 12.1 318 13.5
2009-02-20 08:26:13 51°18.1 2°51.25 318 12.1 317 13.7
2009-02-20 08:26:18 51°18.112 2°51.232 318 12.1 317 13.7
2009-02-20 08:26:23 51°18.124 2°51.214 318 12.1 317 13.9
2009-02-20 08:26:28 51°18.137 2°51.196 317.9 12.1 317 14.1
2009-02-20 08:26:33 51°18.149 2°51.178 317.8 12.1 317 14.1
2009-02-20 08:26:38 51°18.161 2°51.159 317.8 12.1 317 14.1
2009-02-20 08:26:43 51°18.173 2°51.141 317.5 12.1 316 14.2
2009-02-20 08:26:48 51°18.186 2°51.123 317.3 12.1 317 14.4
2009-02-20 08:26:53 51°18.198 2°51.104 317.2 12.1 317 14.4
2009-02-20 08:26:58 51°18.21 2°51.086 317.2 12.2 317 14.6
2009-02-20 08:27:04 51°18.225 2°51.064 317.3 12.2 317 14.6
2009-02-20 08:27:08 51°18.235 2°51.049 317.4 12.1 317 14.7
2009-02-20 08:27:13 51°18.247 2°51.031 317.5 12.1 316 14.9
2009-02-20 08:27:18 51°18.259 2°51.012 316.7 12.1 316 14.9
2009-02-20 08:27:23 51°18.271 2°50.994 316.5 12.1 316 15
2009-02-20 08:27:28 51°18.283 2°50.975 316.7 12.1 316 15
2009-02-20 08:27:34 51°18.297 2°50.952 316.5 12.1 315 15.1
2009-02-20 08:27:39 51°18.309 2°50.934 315.7 12.1 315 15.1
2009-02-20 08:27:44 51°18.321 2°50.914 315.1 12.1 314 15.2
2009-02-20 08:27:49 51°18.333 2°50.895 314.5 12.1 314 15.3
2009-02-20 08:27:54 51°18.344 2°50.875 314.4 12.1 314 15.4
2009-02-20 08:27:59 51°18.356 2°50.856 314.1 12.1 314 15.4
2009-02-20 08:28:04 51°18.367 2°50.837 314 12.1 313 15.5
2009-02-20 08:28:09 51°18.379 2°50.818 314.1 12.1 314 15.5
2009-02-20 08:28:14 51°18.391 2°50.799 314.4 12.1 314 15.6
2009-02-20 08:28:19 51°18.402 2°50.78 314.5 12.1 314 15.7
2009-02-20 08:28:24 51°18.414 2°50.76 314.6 12.1 314 15.7
2009-02-20 08:28:29 51°18.426 2°50.742 314.7 12.1 314 15.8
2009-02-20 08:28:34 51°18.438 2°50.723 314.6 12.1 315 15.8
2009-02-20 08:28:39 51°18.45 2°50.704 314.7 12.1 316 15.9
2009-02-20 08:28:44 51°18.462 2°50.685 315.8 12.2 316 16
2009-02-20 08:28:49 51°18.474 2°50.667 316.1 12.2 316 16
2009-02-20 08:28:53 51°18.484 2°50.651 316.3 12.2 315 16.2
2009-02-20 08:28:59 51°18.499 2°50.629 315.9 12.2 316 16.1
2009-02-20 08:29:04 51°18.511 2°50.61 315.8 12.2 315 16
2009-02-20 08:29:09 51°18.523 2°50.591 315.4 12.2 316 16.2
2009-02-20 08:29:13 51°18.533 2°50.576 315.7 12.2 316 16.1
2009-02-20 08:29:19 51°18.547 2°50.554 315.8 12.2 316 16.1
2009-02-20 08:29:24 51°18.559 2°50.535 315.7 12.2 316 16.2
2009-02-20 08:29:29 51°18.572 2°50.516 315.7 12.2 316 16.2
2009-02-20 08:29:34 51°18.584 2°50.497 315.5 12.2 316 16.2
2009-02-20 08:29:39 51°18.596 2°50.478 315.5 12.2 316 16.2
2009-02-20 08:29:44 51°18.608 2°50.46 315.7 12.2 317 16.2
2009-02-20 08:29:49 51°18.62 2°50.441 316 12.2 317 16.3
2009-02-20 08:29:54 51°18.633 2°50.423 316.2 12.2 316 16.2
2009-02-20 08:29:58 51°18.642 2°50.408 315.8 12.2 317 16.3
2009-02-20 08:30:04 51°18.658 2°50.386 316.3 12.2 318 16.4
2009-02-20 08:30:09 51°18.67 2°50.368 317.3 12.3 318 16.3
2009-02-20 08:30:14 51°18.683 2°50.35 317.8 12.3 320 16.3
2009-02-20 08:30:18 51°18.693 2°50.336 318.6 12.3 319 16.2
2009-02-20 08:30:24 51°18.709 2°50.315 318.9 12.2 320 16.2
2009-02-20 08:30:29 51°18.722 2°50.297 319.4 12.3 319 16.2
2009-02-20 08:30:34 51°18.735 2°50.28 319.5 12.3 320 16.1
2009-02-20 08:30:38 51°18.745 2°50.265 319.8 12.3 320 15.9
2009-02-20 08:30:44 51°18.761 2°50.244 319.8 12.3 319 15.9
2009-02-20 08:30:49 51°18.774 2°50.227 319.4 12.3 320 15.9
2009-02-20 08:30:54 51°18.787 2°50.209 319.4 12.3 319 15.6
2009-02-20 08:30:59 51°18.8 2°50.191 319.4 12.3 319 15.6
2009-02-20 08:31:04 51°18.813 2°50.174 319.2 12.3 319 15.4
2009-02-20 08:31:09 51°18.826 2°50.156 318.9 12.3 319 15.3
2009-02-20 08:31:14 51°18.839 2°50.138 318.9 12.2 319 15.3
2009-02-20 08:31:19 51°18.851 2°50.12 318.9 12.3 319 15.1
2009-02-20 08:31:24 51°18.863 2°50.101 318.3 12.2 317 14.9
2009-02-20 08:31:28 51°18.873 2°50.087 317.3 12.2 317 14.9
2009-02-20 08:31:33 51°18.885 2°50.068 316.9 12.2 316 14.7
2009-02-20 08:31:38 51°18.898 2°50.049 316.2 12.2 316 14.6
2009-02-20 08:31:43 51°18.91 2°50.03 315.8 12.2 316 14.3
2009-02-20 08:31:49 51°18.924 2°50.008 315.6 12.1 316 14.2
2009-02-20 08:31:53 51°18.934 2°49.993 315.5 12.1 315 14.1
2009-02-20 08:31:58 51°18.946 2°49.974 315.2 12.1 316 14
2009-02-20 08:32:03 51°18.958 2°49.955 315.4 12.1 315 14
2009-02-20 08:32:09 51°18.972 2°49.932 315.3 12.1 316 14
2009-02-20 08:32:13 51°18.982 2°49.917 315.4 12.1 315 13.8
2009-02-20 08:32:18 51°18.994 2°49.899 315.4 12.1 315 13.4
2009-02-20 08:32:24 51°19.008 2°49.876 315.4 12.1 315 13.1
2009-02-20 08:32:29 51°19.02 2°49.857 315.3 12.1 316 12.9
2009-02-20 08:32:33 51°19.029 2°49.843 315.2 12 316 12.8
2009-02-20 08:32:38 51°19.041 2°49.824 315.4 12.1 316 12.9
2009-02-20 08:32:44 51°19.056 2°49.802 315.7 12 316 12.8
2009-02-20 08:32:49 51°19.068 2°49.784 316.1 12 317 12.8
2009-02-20 08:32:53 51°19.078 2°49.77 316.9 12 318 12.8
2009-02-20 08:32:58 51°19.09 2°49.752 318 12 318 12.8
2009-02-20 08:33:03 51°19.103 2°49.734 318.3 12 319 12.9
2009-02-20 08:33:09 51°19.118 2°49.713 318.7 12.1 319 13.2
2009-02-20 08:33:13 51°19.128 2°49.699 319.2 12.1 319 13.4
2009-02-20 08:33:18 51°19.141 2°49.682 319.4 12.1 320 13.6
2009-02-20 08:33:23 51°19.154 2°49.664 319.8 12.1 319 13.9
2009-02-20 08:33:29 51°19.169 2°49.644 319.8 12.1 319 14
2009-02-20 08:33:34 51°19.182 2°49.626 319.7 12.1 319 14.2
2009-02-20 08:33:38 51°19.192 2°49.612 319.5 12.1 319 14
2009-02-20 08:33:44 51°19.207 2°49.591 319.3 12.1 319 13.7
2009-02-20 08:33:49 51°19.22 2°49.573 319.4 12.1 319 13.8
2009-02-20 08:33:53 51°19.23 2°49.559 319.3 12.1 317 14
2009-02-20 08:33:58 51°19.242 2°49.541 318.1 12.1 318 14.4
2009-02-20 08:34:04 51°19.257 2°49.519 317.7 12.1 317 14.7
2009-02-20 08:34:09 51°19.269 2°49.501 317.4 12.1 318 14.9
2009-02-20 08:34:13 51°19.279 2°49.487 317.7 12 318 15.2
2009-02-20 08:34:18 51°19.292 2°49.469 317.8 12.1 318 15.4
2009-02-20 08:34:24 51°19.307 2°49.448 318.2 12.1 318 15.6
2009-02-20 08:34:29 51°19.319 2°49.43 318.4 12 317 15.7
2009-02-20 08:34:33 51°19.328 2°49.415 317.2 12 317 15.8
2009-02-20 08:34:38 51°19.341 2°49.397 316.7 12.1 316 15.9
2009-02-20 08:34:44 51°19.355 2°49.374 316.2 12 316 16
2009-02-20 08:34:49 51°19.367 2°49.356 315.7 12 317 16.1
2009-02-20 08:34:53 51°19.377 2°49.341 316.4 12 317 16.2
2009-02-20 08:34:58 51°19.389 2°49.324 317.1 12 318 16.2
2009-02-20 08:35:04 51°19.404 2°49.302 317.8 12.1 318 16.4
2009-02-20 08:35:09 51°19.416 2°49.284 318.2 12.1 318 16.2
2009-02-20 08:35:14 51°19.429 2°49.266 318 12.1 318 16.3
2009-02-20 08:35:18 51°19.439 2°49.252 318.2 12.1 318 16.3
2009-02-20 08:35:23 51°19.451 2°49.234 318.6 12.1 318 16.5
2009-02-20 08:35:29 51°19.466 2°49.212 318.7 12.1 318 16.5
2009-02-20 08:35:33 51°19.476 2°49.198 318.7 12.1 318 16.7
2009-02-20 08:35:38 51°19.489 2°49.18 318.5 12.1 318 16.9
2009-02-20 08:35:43 51°19.502 2°49.163 318.6 12.1 319 17.2
2009-02-20 08:35:49 51°19.516 2°49.141 318.8 12.1 319 17.6
2009-02-20 08:35:54 51°19.529 2°49.124 319.1 12.1 319 18
2009-02-20 08:35:58 51°19.539 2°49.11 319.1 12.1 319 18.4
2009-02-20 08:36:04 51°19.555 2°49.089 319.3 12.1 319 18.6
2009-02-20 08:36:09 51°19.567 2°49.071 319.2 12.1 317 18.8
2009-02-20 08:36:13 51°19.577 2°49.056 318.1 12 318 18.9
2009-02-20 08:36:18 51°19.589 2°49.039 317.6 12.1 318 19.1
2009-02-20 08:36:24 51°19.604 2°49.017 317.6 12.1 318 19.3
2009-02-20 08:36:29 51°19.617 2°48.999 317.3 12.1 318 19.4
2009-02-20 08:36:33 51°19.627 2°48.985 317.7 12.1 318 19.6
2009-02-20 08:36:38 51°19.639 2°48.967 318 12.1 319 19.7
2009-02-20 08:36:44 51°19.654 2°48.946 318.3 12.1 319 19.9
2009-02-20 08:36:49 51°19.667 2°48.928 318.6 12.1 319 20.1
2009-02-20 08:36:53 51°19.677 2°48.914 318.6 12.1 318 20.2
2009-02-20 08:36:58 51°19.689 2°48.896 318.1 12.1 318 20.5
2009-02-20 08:37:04 51°19.704 2°48.875 318 12.1 318 20.7
2009-02-20 08:37:09 51°19.717 2°48.857 317.9 12.1 318 20.8
2009-02-20 08:37:13 51°19.727 2°48.843 318.2 12.1 318 21.1
2009-02-20 08:37:18 51°19.74 2°48.825 318 12.1 318 21.3
2009-02-20 08:37:24 51°19.755 2°48.803 317.7 12.2 318 21.5
2009-02-20 08:37:29 51°19.767 2°48.785 317.7 12.1 316 21.7
2009-02-20 08:37:33 51°19.777 2°48.77 316.5 12.1 317 21.8
2009-02-20 08:37:38 51°19.789 2°48.751 316.1 12.1 316 22.1
2009-02-20 08:37:43 51°19.801 2°48.733 315.7 12.1 315 22.2
2009-02-20 08:37:49 51°19.815 2°48.71 315 12.1 315 22.6
2009-02-20 08:37:54 51°19.827 2°48.692 314.9 12.1 317 22.7
2009-02-20 08:37:58 51°19.837 2°48.677 315.8 12.2 317 23
2009-02-20 08:38:04 51°19.852 2°48.655 316.2 12.2 317 23.1
2009-02-20 08:38:09 51°19.865 2°48.637 316.5 12.2 318 23.3
2009-02-20 08:38:14 51°19.877 2°48.619 317.1 12.2 318 23.6
2009-02-20 08:38:18 51°19.887 2°48.604 317.5 12.2 316 23.7
2009-02-20 08:38:23 51°19.899 2°48.585 316.6 12.2 316 23.8
2009-02-20 08:38:29 51°19.914 2°48.563 316 12.1 316 24
2009-02-20 08:38:33 51°19.923 2°48.548 315.8 12.1 316 24
2009-02-20 08:38:38 51°19.936 2°48.529 315.6 12.1 316 24.1
2009-02-20 08:38:44 51°19.95 2°48.507 315.4 12.1 316 24.2
2009-02-20 08:38:49 51°19.962 2°48.488 315.1 12.1 317 24.2
2009-02-20 08:38:53 51°19.972 2°48.473 315.8 12.2 317 24.2
2009-02-20 08:38:59 51°19.987 2°48.451 316.7 12.1 317 24.2
2009-02-20 08:39:04 51°19.999 2°48.433 316.8 12.1 317 24.3
2009-02-20 08:39:09 51°20.011 2°48.414 316.4 12.1 316 24.4
2009-02-20 08:39:13 51°20.021 2°48.399 316 12.1 316 24.5
2009-02-20 08:39:18 51°20.033 2°48.381 315.7 12.1 316 24.4
2009-02-20 08:39:24 51°20.047 2°48.358 315.4 12.1 316 24.4
2009-02-20 08:39:29 51°20.059 2°48.339 315.4 12.1 316 24.4
2009-02-20 08:39:33 51°20.069 2°48.324 315.3 12.1 316 24.4
2009-02-20 08:39:38 51°20.081 2°48.306 315.3 12.1 316 24.4
2009-02-20 08:39:43 51°20.093 2°48.287 315.4 12.1 316 24.3
2009-02-20 08:39:49 51°20.108 2°48.265 315.4 12.1 316 24.4
2009-02-20 08:39:53 51°20.117 2°48.25 315.3 12.1 316 24.5
2009-02-20 08:39:58 51°20.129 2°48.231 315.5 12.1 316 24.5
2009-02-20 08:40:03 51°20.141 2°48.212 315.7 12.1 315 24.4
2009-02-20 08:40:09 51°20.156 2°48.19 315.3 12.2 317 24.4
2009-02-20 08:40:14 51°20.168 2°48.172 315.7 12.2 317 24.4
2009-02-20 08:40:18 51°20.178 2°48.157 316.6 12.2 317 24.3
2009-02-20 08:40:24 51°20.193 2°48.136 317.2 12.2 319 24.3
2009-02-20 08:40:29 51°20.206 2°48.119 318.1 12.2 319 24.4
2009-02-20 08:40:34 51°20.22 2°48.103 318.7 12.2 324 24.2
2009-02-20 08:40:38 51°20.231 2°48.09 321.7 12.2 325 24.2
2009-02-20 08:40:44 51°20.248 2°48.073 324.5 12.2 328 24.2
2009-02-20 08:40:49 51°20.263 2°48.059 326.2 12.3 329 24.2
2009-02-20 08:40:53 51°20.275 2°48.048 328.3 12.3 331 24.1
2009-02-20 08:40:58 51°20.29 2°48.035 330.2 12.3 331 23.9
2009-02-20 08:41:04 51°20.308 2°48.021 331.3 12.3 334 23.8
2009-02-20 08:41:09 51°20.323 2°48.008 332.5 12.3 334 23.8
2009-02-20 08:41:13 51°20.336 2°48 334.2 12.3 336 23.8
2009-02-20 08:41:18 51°20.352 2°47.988 335.4 12.4 335 23.7
2009-02-20 08:41:24 51°20.371 2°47.976 336 12.4 338 23.4
2009-02-20 08:41:29 51°20.386 2°47.965 336.9 12.4 337 23.3
2009-02-20 08:41:33 51°20.399 2°47.957 337.6 12.4 338 23.3
2009-02-20 08:41:38 51°20.415 2°47.947 337.9 12.4 338 23.2
2009-02-20 08:41:44 51°20.434 2°47.935 338.3 12.4 339 23.1
2009-02-20 08:41:49 51°20.45 2°47.925 338.5 12.4 338 23
2009-02-20 08:41:54 51°20.466 2°47.915 338.5 12.4 338 23
2009-02-20 08:41:58 51°20.479 2°47.906 338.5 12.4 338 22.9
2009-02-20 08:42:03 51°20.495 2°47.896 338.3 12.4 339 22.8
2009-02-20 08:42:09 51°20.514 2°47.884 338.4 12.4 339 22.6
2009-02-20 08:42:13 51°20.527 2°47.876 338.5 12.4 338 22.6
2009-02-20 08:42:18 51°20.543 2°47.866 338.3 12.4 338 22.4
2009-02-20 08:42:23 51°20.559 2°47.856 338.2 12.4 338 22.3
2009-02-20 08:42:29 51°20.578 2°47.843 338.2 12.4 337 22.4
2009-02-20 08:42:34 51°20.594 2°47.832 337.7 12.3 338 22.1
2009-02-20 08:42:38 51°20.606 2°47.824 337.7 12.3 337 21.9
2009-02-20 08:42:43 51°20.622 2°47.813 337.6 12.3 337 21.8
2009-02-20 08:42:49 51°20.641 2°47.801 337.5 12.3 338 21.4
2009-02-20 08:42:54 51°20.657 2°47.79 337.6 12.3 338 21.4
2009-02-20 08:42:58 51°20.669 2°47.782 337.7 12.3 338 21.3
2009-02-20 08:43:04 51°20.688 2°47.771 337.7 12.3 339 20.7
2009-02-20 08:43:09 51°20.704 2°47.76 338.4 12.3 338 20.7
2009-02-20 08:43:13 51°20.717 2°47.753 338.4 12.3 339 20.8
2009-02-20 08:43:19 51°20.736 2°47.74 338.3 12.3 338 20.8
2009-02-20 08:43:24 51°20.752 2°47.73 338.3 12.3 338 20.7
2009-02-20 08:43:29 51°20.768 2°47.72 338.1 12.3 337 21
2009-02-20 08:43:33 51°20.78 2°47.712 337.5 12.3 338 20.8
2009-02-20 08:43:38 51°20.796 2°47.701 337.6 12.3 338 21
2009-02-20 08:43:44 51°20.815 2°47.689 337.8 12.3 338 20.8
2009-02-20 08:43:49 51°20.831 2°47.679 338.1 12.3 338 21.1
2009-02-20 08:43:53 51°20.844 2°47.671 338 12.3 338 21.3
2009-02-20 08:43:58 51°20.86 2°47.661 337.8 12.3 338 21.4
2009-02-20 08:44:04 51°20.879 2°47.649 337.9 12.3 338 21.1
2009-02-20 08:44:09 51°20.895 2°47.639 338 12.3 339 20
2009-02-20 08:44:13 51°20.907 2°47.631 338 12.2 339 19.5
2009-02-20 08:44:18 51°20.923 2°47.621 338.3 12.3 338 20
2009-02-20 08:44:23 51°20.939 2°47.61 337.9 12.2 336 20.2
2009-02-20 08:44:29 51°20.957 2°47.598 336.4 12.3 337 20.8
2009-02-20 08:44:34 51°20.973 2°47.586 335.9 12.3 335 21.3
2009-02-20 08:44:38 51°20.985 2°47.577 335.2 12.3 336 21.8
2009-02-20 08:44:44 51°21.004 2°47.563 335.1 12.3 335 22.3
2009-02-20 08:44:49 51°21.019 2°47.551 334.9 12.3 333 22.8
2009-02-20 08:44:53 51°21.031 2°47.541 333.4 12.3 332 23.2
2009-02-20 08:44:58 51°21.046 2°47.528 332.4 12.3 332 23.3
2009-02-20 08:45:03 51°21.061 2°47.515 331.8 12.3 332 23.2
2009-02-20 08:45:09 51°21.08 2°47.501 331.8 12.3 333 23.2
2009-02-20 08:45:14 51°21.094 2°47.488 332.4 12.2 333 23.2
2009-02-20 08:45:18 51°21.107 2°47.478 332.7 12.2 332 22.7
2009-02-20 08:45:24 51°21.124 2°47.461 332.2 12.2 329 22.7
2009-02-20 08:45:29 51°21.138 2°47.447 329.8 12.2 328 23.1
2009-02-20 08:45:33 51°21.15 2°47.435 327.6 12.2 327 23.7
2009-02-20 08:45:38 51°21.163 2°47.42 326.1 12.1 325 24.1
2009-02-20 08:45:44 51°21.18 2°47.402 324.8 12.1 325 24.1
2009-02-20 08:45:49 51°21.193 2°47.386 323.6 12 323 23.6
2009-02-20 08:45:53 51°21.204 2°47.373 322.7 12 324 21.2
2009-02-20 08:45:58 51°21.217 2°47.357 322.3 12 323 21.7
2009-02-20 08:46:04 51°21.233 2°47.338 321.8 12 323 22.3
2009-02-20 08:46:09 51°21.246 2°47.321 321.6 12 322 23.1
2009-02-20 08:46:13 51°21.257 2°47.308 320.9 12 320 23.5
2009-02-20 08:46:18 51°21.269 2°47.29 319.2 12 319 23.9
2009-02-20 08:46:24 51°21.284 2°47.269 318.2 11.9 319 24.2
2009-02-20 08:46:29 51°21.296 2°47.251 317.3 12 317 24.8
2009-02-20 08:46:33 51°21.306 2°47.237 316.5 11.9 317 25.1
2009-02-20 08:46:38 51°21.318 2°47.218 315.8 11.9 316 25.3
2009-02-20 08:46:43 51°21.33 2°47.2 315 11.9 317 25.5
2009-02-20 08:46:49 51°21.344 2°47.178 315 12 316 25.5
2009-02-20 08:46:54 51°21.356 2°47.16 314.7 12 317 25.7
2009-02-20 08:46:58 51°21.366 2°47.145 314.8 12 316 25.9
2009-02-20 08:47:04 51°21.38 2°47.123 314.4 12 317 25.9
2009-02-20 08:47:09 51°21.392 2°47.105 314.5 12 316 25.8
2009-02-20 08:47:14 51°21.404 2°47.086 314.6 11.9 316 25.7
2009-02-20 08:47:18 51°21.414 2°47.071 314.2 12 317 26
2009-02-20 08:47:24 51°21.428 2°47.049 314.3 12 317 25.4
2009-02-20 08:47:29 51°21.44 2°47.031 314.8 11.9 316 25.7
2009-02-20 08:47:34 51°21.452 2°47.013 314.8 12 317 25.8
2009-02-20 08:47:38 51°21.462 2°46.998 314.7 12 317 25.1
2009-02-20 08:47:44 51°21.477 2°46.976 315.1 12 316 25
2009-02-20 08:47:49 51°21.488 2°46.958 314.8 12 315 25.1
2009-02-20 08:47:53 51°21.498 2°46.943 313.6 12 315 25.2
2009-02-20 08:47:58 51°21.509 2°46.924 312.9 11.9 314 25.6
2009-02-20 08:48:04 51°21.523 2°46.901 312.7 11.9 314 26.3
2009-02-20 08:48:09 51°21.535 2°46.882 312.2 11.8 314 26.5
2009-02-20 08:48:13 51°21.544 2°46.867 311.8 11.9 313 27.1
2009-02-20 08:48:18 51°21.555 2°46.848 311.4 12 313 27.2
2009-02-20 08:48:24 51°21.569 2°46.824 311.1 12 313 27.2
2009-02-20 08:48:29 51°21.58 2°46.805 311.3 11.9 313 26.8
2009-02-20 08:48:33 51°21.589 2°46.79 311.4 11.9 313 27
2009-02-20 08:48:38 51°21.601 2°46.771 311.5 12 314 27.1
2009-02-20 08:48:44 51°21.614 2°46.748 311.5 11.9 314 26.7
2009-02-20 08:48:49 51°21.626 2°46.729 311.7 11.9 313 26.9
2009-02-20 08:48:53 51°21.635 2°46.714 311.5 11.9 314 27
2009-02-20 08:48:58 51°21.646 2°46.695 311.5 11.9 314 27
2009-02-20 08:49:03 51°21.658 2°46.676 311.6 12 314 27
2009-02-20 08:49:09 51°21.672 2°46.653 311.7 12 314 27
2009-02-20 08:49:14 51°21.683 2°46.634 311.9 12 313 27
2009-02-20 08:49:18 51°21.692 2°46.618 311.5 12 314 27
2009-02-20 08:49:23 51°21.704 2°46.599 311.6 11.9 314 27.1
2009-02-20 08:49:29 51°21.717 2°46.576 311.8 12 314 27
2009-02-20 08:49:34 51°21.729 2°46.557 311.9 12 314 27
2009-02-20 08:49:38 51°21.738 2°46.542 312 12 314 27
2009-02-20 08:49:44 51°21.752 2°46.519 311.7 12 315 26.8
2009-02-20 08:49:49 51°21.764 2°46.5 312.1 12 314 26.8
2009-02-20 08:49:54 51°21.775 2°46.481 312.2 12 314 26.7
2009-02-20 08:49:59 51°21.787 2°46.462 311.7 12 314 26.5
2009-02-20 08:50:04 51°21.798 2°46.443 311.7 12 314 26.4
2009-02-20 08:50:09 51°21.81 2°46.424 311.7 12 314 26.3
2009-02-20 08:50:13 51°21.819 2°46.408 311.8 12 313 26.2
2009-02-20 08:50:18 51°21.83 2°46.389 311.7 12 314 26
2009-02-20 08:50:24 51°21.844 2°46.366 311.9 12 315 25.9
2009-02-20 08:50:29 51°21.856 2°46.347 312.2 12 314 25.5
2009-02-20 08:50:33 51°21.865 2°46.332 312.4 12 314 25.3
2009-02-20 08:50:38 51°21.876 2°46.313 312.2 12 314 25
2009-02-20 08:50:44 51°21.89 2°46.29 311.7 12 313 25
2009-02-20 08:50:49 51°21.901 2°46.27 311.5 12 312 24.8
2009-02-20 08:50:53 51°21.91 2°46.254 310.8 12 313 24.6
2009-02-20 08:50:58 51°21.922 2°46.235 310.4 12.1 314 24.5
2009-02-20 08:51:04 51°21.935 2°46.211 311.3 12.1 313 24.2
2009-02-20 08:51:09 51°21.947 2°46.192 311.5 12 312 24.1
2009-02-20 08:51:14 51°21.958 2°46.172 310.9 12 313 23.9
2009-02-20 08:51:18 51°21.967 2°46.157 310.5 12 312 23.8
2009-02-20 08:51:24 51°21.98 2°46.133 310.2 12 312 23.6
2009-02-20 08:51:29 51°21.991 2°46.113 309.9 11.9 311 23.5
2009-02-20 08:51:33 51°22 2°46.098 309.2 11.9 312 23.4
2009-02-20 08:51:38 51°22.011 2°46.077 309.3 11.9 311 23.3
2009-02-20 08:51:43 51°22.022 2°46.058 309.4 12 311 23.4
2009-02-20 08:51:49 51°22.035 2°46.034 309.5 12 311 23.1
2009-02-20 08:51:54 51°22.046 2°46.014 309.2 12 312 23.2
2009-02-20 08:51:58 51°22.055 2°45.998 309.5 12.1 312 23.2
2009-02-20 08:52:04 51°22.069 2°45.974 310 12 312 23
2009-02-20 08:52:09 51°22.08 2°45.954 310.1 12 312 23
2009-02-20 08:52:14 51°22.091 2°45.935 310.4 12 313 23
2009-02-20 08:52:18 51°22.1 2°45.919 310.9 12.1 313 23.1
2009-02-20 08:52:24 51°22.114 2°45.896 311.5 12.1 315 22.8
2009-02-20 08:52:29 51°22.126 2°45.877 312.4 12.1 313 22.8
2009-02-20 08:52:33 51°22.135 2°45.861 312.2 12.1 313 22.9
2009-02-20 08:52:39 51°22.149 2°45.838 311.5 12.1 313 22.9
2009-02-20 08:52:44 51°22.16 2°45.818 311.3 12.1 312 23.1
2009-02-20 08:52:49 51°22.171 2°45.798 310.8 12 312 23.3
2009-02-20 08:52:53 51°22.181 2°45.783 310.4 12.1 313 23.2
2009-02-20 08:52:58 51°22.192 2°45.763 310.7 12.1 313 23.5
2009-02-20 08:53:04 51°22.206 2°45.74 310.9 12.1 315 23.6
2009-02-20 08:53:09 51°22.218 2°45.721 312 12.1 315 23.8
2009-02-20 08:53:13 51°22.227 2°45.706 312.7 12.1 316 23.9
2009-02-20 08:53:18 51°22.239 2°45.687 313.3 12.2 315 24.2
2009-02-20 08:53:23 51°22.251 2°45.668 313.7 12.1 315 24.3
2009-02-20 08:53:29 51°22.266 2°45.645 313.7 12.2 315 24.3
2009-02-20 08:53:34 51°22.278 2°45.627 313.6 12.2 316 23.6
2009-02-20 08:53:38 51°22.288 2°45.612 313.9 12.1 316 23.2
2009-02-20 08:53:43 51°22.299 2°45.593 314.1 12.1 315 23.4
2009-02-20 08:53:49 51°22.314 2°45.569 313.2 12.1 314 23.4
2009-02-20 08:53:54 51°22.325 2°45.55 312.5 12.1 314 23.9
2009-02-20 08:53:58 51°22.334 2°45.534 311.9 12.1 314 24.2
2009-02-20 08:54:04 51°22.348 2°45.511 311.5 12.1 313 24.2
2009-02-20 08:54:09 51°22.36 2°45.491 311.4 12.2 313 23.9
2009-02-20 08:54:14 51°22.371 2°45.471 311.2 12.2 313 23.5
2009-02-20 08:54:18 51°22.38 2°45.456 311 12.2 313 24.4
2009-02-20 08:54:24 51°22.394 2°45.432 310.8 12.2 314 25
2009-02-20 08:54:29 51°22.406 2°45.413 311.7 12.2 314 25.3
2009-02-20 08:54:34 51°22.418 2°45.393 312.2 12.1 314 25.7
2009-02-20 08:54:38 51°22.427 2°45.378 312.4 12.1 313 26.2
2009-02-20 08:54:44 51°22.441 2°45.354 312 12.1 313 26.6
2009-02-20 08:54:49 51°22.452 2°45.335 311.5 12 313 26.5
2009-02-20 08:54:53 51°22.461 2°45.32 311.1 12 314 26.1
2009-02-20 08:54:58 51°22.473 2°45.3 311.8 12 313 26.1
2009-02-20 08:55:04 51°22.486 2°45.277 311.5 12 313 26.6
2009-02-20 08:55:09 51°22.498 2°45.257 311.5 12 313 27
2009-02-20 08:55:13 51°22.507 2°45.242 311.8 12 313 27.3
2009-02-20 08:55:18 51°22.518 2°45.222 311.5 12 313 27.4
2009-02-20 08:55:24 51°22.532 2°45.199 311.4 12 313 27.6
2009-02-20 08:55:29 51°22.544 2°45.18 311.5 12 314 27.6
2009-02-20 08:55:33 51°22.553 2°45.165 311.7 12 314 27.5
2009-02-20 08:55:38 51°22.564 2°45.145 311.5 12 313 27.5
2009-02-20 08:55:43 51°22.576 2°45.126 310.8 11.9 313 27.5
2009-02-20 08:55:49 51°22.589 2°45.103 311.2 12 314 26.4
2009-02-20 08:55:53 51°22.599 2°45.088 311.9 12 315 25.9
2009-02-20 08:55:58 51°22.61 2°45.069 312.5 12 314 25.9
2009-02-20 08:56:03 51°22.622 2°45.05 311.9 12 315 25.2
2009-02-20 08:56:09 51°22.636 2°45.027 311.9 12 315 26.8
2009-02-20 08:56:14 51°22.648 2°45.008 312.5 12 316 27.6
2009-02-20 08:56:18 51°22.658 2°44.994 313.2 12.1 315 27.9
2009-02-20 08:56:24 51°22.672 2°44.971 313.5 12 315 28
2009-02-20 08:56:29 51°22.684 2°44.952 313.5 12 316 28.3
2009-02-20 08:56:33 51°22.694 2°44.937 313.6 12 317 28.2
2009-02-20 08:56:38 51°22.706 2°44.919 314.2 12 316 28.4
2009-02-20 08:56:44 51°22.72 2°44.897 314.1 12.1 315 28.4
2009-02-20 08:56:49 51°22.732 2°44.878 313.1 12.1 316 28.6
2009-02-20 08:56:53 51°22.741 2°44.863 313.6 12 315 28.7
2009-02-20 08:56:58 51°22.753 2°44.844 313.4 11.7 314 28.1
2009-02-20 08:57:04 51°22.766 2°44.823 312.4 11.1 314 27.8
2009-02-20 08:57:09 51°22.776 2°44.806 311.9 10.6 314 28
2009-02-20 08:57:13 51°22.784 2°44.793 311.5 10.3 313 28
2009-02-20 08:57:18 51°22.794 2°44.776 310.8 10.5 314 28
2009-02-20 08:57:24 51°22.806 2°44.756 310.8 10.8 314 27.9
2009-02-20 08:57:29 51°22.817 2°44.738 311.2 11.1 314 28.1
2009-02-20 08:57:33 51°22.826 2°44.724 311.5 11.3 314 28.7
2009-02-20 08:57:38 51°22.837 2°44.706 311.7 11.4 314 28.8
2009-02-20 08:57:44 51°22.851 2°44.684 311.5 11.6 315 28.7
2009-02-20 08:57:49 51°22.862 2°44.666 312.2 11.7 314 28.4
2009-02-20 08:57:54 51°22.873 2°44.647 312 11.7 313 28.3
2009-02-20 08:57:58 51°22.882 2°44.632 311.5 11.7 314 27.9
2009-02-20 08:58:04 51°22.896 2°44.61 311.4 11.7 314 27.3
2009-02-20 08:58:09 51°22.907 2°44.591 311.5 11.8 315 27.3
2009-02-20 08:58:13 51°22.916 2°44.577 311.8 11.8 315 27.1
2009-02-20 08:58:18 51°22.928 2°44.558 312.2 11.8 316 28.3
2009-02-20 08:58:23 51°22.94 2°44.54 312.9 11.8 316 28.7
2009-02-20 08:58:29 51°22.954 2°44.518 313.2 11.9 316 28.5
2009-02-20 08:58:34 51°22.966 2°44.5 313.6 11.9 316 28.1
2009-02-20 08:58:38 51°22.975 2°44.484 313.5 11.9 315 26.9
2009-02-20 08:58:44 51°22.989 2°44.462 312.9 11.9 315 26.8
2009-02-20 08:58:49 51°23.001 2°44.444 312.6 11.9 315 28
2009-02-20 08:58:54 51°23.013 2°44.425 312.5 12 316 28.7
2009-02-20 08:58:58 51°23.023 2°44.41 312.6 12 316 29.1
2009-02-20 08:59:04 51°23.037 2°44.388 313.1 12 316 29.3
2009-02-20 08:59:09 51°23.049 2°44.37 313.1 12 316 29.2
2009-02-20 08:59:13 51°23.058 2°44.355 313.5 12 316 29.1
2009-02-20 08:59:19 51°23.073 2°44.333 313.8 11.9 316 29.2
2009-02-20 08:59:24 51°23.085 2°44.315 313.9 11.9 316 29.5
2009-02-20 08:59:29 51°23.097 2°44.297 313.8 12 317 29.3
2009-02-20 08:59:33 51°23.106 2°44.282 313.7 12 316 29
2009-02-20 08:59:38 51°23.119 2°44.264 313.9 12 317 28.1
2009-02-20 08:59:44 51°23.133 2°44.242 314.3 12 316 27.2
2009-02-20 08:59:49 51°23.145 2°44.224 314 12 317 27.7
2009-02-20 08:59:53 51°23.155 2°44.209 313.6 11.9 316 27.7
2009-02-20 08:59:58 51°23.167 2°44.191 313.5 11.9 316 28.6
2009-02-20 09:00:04 51°23.181 2°44.169 313.4 12 316 28.7
2009-02-20 09:00:09 51°23.193 2°44.15 313.3 11.9 315 28.2
2009-02-20 09:00:14 51°23.204 2°44.131 313.1 11.9 314 26.7
2009-02-20 09:00:18 51°23.214 2°44.115 312.9 11.9 313 27.6
2009-02-20 09:00:23 51°23.225 2°44.097 312.2 11.9 314 28.5
2009-02-20 09:00:29 51°23.239 2°44.074 312.4 11.9 314 28.7
2009-02-20 09:00:34 51°23.25 2°44.055 312.7 11.9 313 29.3
2009-02-20 09:00:38 51°23.259 2°44.039 311.9 11.9 313 29.1
2009-02-20 09:00:44 51°23.272 2°44.016 311.5 12 313 29.3
2009-02-20 09:00:49 51°23.284 2°43.996 311.5 11.9 313 29
2009-02-20 09:00:54 51°23.295 2°43.977 312.2 11.9 313 27.8
2009-02-20 09:00:58 51°23.304 2°43.962 312.5 11.9 314 26.3
2009-02-20 09:01:03 51°23.316 2°43.943 312.6 11.9 313 27.5
2009-02-20 09:01:09 51°23.329 2°43.921 312.9 11.9 314 28.1
2009-02-20 09:01:14 51°23.34 2°43.902 312.9 11.8 312 28.8
2009-02-20 09:01:18 51°23.349 2°43.886 312.2 11.9 314 28.8
2009-02-20 09:01:24 51°23.363 2°43.863 311.9 11.8 312 28.2
2009-02-20 09:01:29 51°23.374 2°43.844 311.3 11.9 314 27.7
2009-02-20 09:01:33 51°23.383 2°43.829 312 11.8 313 27.8
2009-02-20 09:01:38 51°23.394 2°43.81 312.4 11.8 314 28.3
2009-02-20 09:01:44 51°23.408 2°43.787 312.9 11.8 313 28.7
2009-02-20 09:01:49 51°23.419 2°43.768 312.5 11.8 313 28.7
2009-02-20 09:01:53 51°23.428 2°43.753 311.9 11.8 312 29.2
2009-02-20 09:01:58 51°23.439 2°43.733 311.3 11.8 312 28.5
2009-02-20 09:02:04 51°23.452 2°43.71 310.9 11.8 312 28.8
2009-02-20 09:02:09 51°23.463 2°43.69 310.7 11.8 311 29.3
2009-02-20 09:02:13 51°23.471 2°43.675 310.2 11.8 312 29
2009-02-20 09:02:18 51°23.482 2°43.655 310.2 11.8 311 28.8
2009-02-20 09:02:23 51°23.493 2°43.636 310.2 11.8 312 28.8
2009-02-20 09:02:29 51°23.506 2°43.613 310.7 11.8 313 28.8
2009-02-20 09:02:33 51°23.515 2°43.598 311.5 11.9 314 28.9
2009-02-20 09:02:38 51°23.526 2°43.578 312.1 11.9 313 28.9
2009-02-20 09:02:43 51°23.538 2°43.559 312.4 11.9 314 29
2009-02-20 09:02:49 51°23.552 2°43.537 312.9 11.8 314 29.4
2009-02-20 09:02:54 51°23.563 2°43.518 313.3 11.9 313 29.4
2009-02-20 09:02:58 51°23.572 2°43.502 312.4 11.8 313 29.1
2009-02-20 09:03:04 51°23.585 2°43.479 311.8 11.8 312 29.1
2009-02-20 09:03:09 51°23.596 2°43.46 311.5 11.9 313 29.3
2009-02-20 09:03:13 51°23.606 2°43.445 311.9 11.9 314 29.3
2009-02-20 09:03:18 51°23.617 2°43.425 312.6 11.8 312 29.3
2009-02-20 09:03:24 51°23.63 2°43.402 312.3 11.8 314 29.1
2009-02-20 09:03:29 51°23.642 2°43.383 312.4 11.9 314 29.1
2009-02-20 09:03:33 51°23.651 2°43.369 312.9 11.8 315 28.9
2009-02-20 09:03:38 51°23.663 2°43.35 313.6 11.8 315 28.6
2009-02-20 09:03:44 51°23.677 2°43.328 313.7 11.9 315 28.5
2009-02-20 09:03:49 51°23.688 2°43.309 313.9 11.8 315 28.3
2009-02-20 09:03:53 51°23.698 2°43.294 314 11.8 315 27.7
2009-02-20 09:03:58 51°23.709 2°43.276 313.6 11.8 315 28
2009-02-20 09:04:04 51°23.723 2°43.254 313.9 11.8 314 27.2
2009-02-20 09:04:09 51°23.735 2°43.235 313.4 11.8 315 27.3
2009-02-20 09:04:13 51°23.744 2°43.22 313.2 11.8 314 27.1
2009-02-20 09:04:18 51°23.755 2°43.202 312.8 11.8 315 26.6
2009-02-20 09:04:24 51°23.769 2°43.179 312.9 11.8 314 25.6
2009-02-20 09:04:29 51°23.78 2°43.16 312.5 11.8 313 24.7
2009-02-20 09:04:34 51°23.791 2°43.141 311.8 11.7 313 25.5
2009-02-20 09:04:38 51°23.8 2°43.126 311.2 11.8 313 26.6
2009-02-20 09:04:43 51°23.811 2°43.107 310.9 11.7 312 26.9
2009-02-20 09:04:49 51°23.824 2°43.084 310.4 11.7 312 27.7
2009-02-20 09:04:53 51°23.832 2°43.068 310.4 11.7 313 27.8
2009-02-20 09:04:58 51°23.844 2°43.049 311.2 11.7 313 28.7
2009-02-20 09:05:03 51°23.855 2°43.031 311.6 11.8 313 28.7
2009-02-20 09:05:09 51°23.868 2°43.008 312.3 11.7 313 28.8
2009-02-20 09:05:14 51°23.879 2°42.989 312.2 11.8 313 29.4
2009-02-20 09:05:18 51°23.888 2°42.973 311.7 11.8 312 29.3
2009-02-20 09:05:24 51°23.902 2°42.95 311.4 11.8 313 30
2009-02-20 09:05:29 51°23.913 2°42.932 311.7 11.9 314 29.8
2009-02-20 09:05:33 51°23.922 2°42.917 312.9 11.9 314 29.6
2009-02-20 09:05:38 51°23.934 2°42.898 313.3 11.9 314 29.2
2009-02-20 09:05:44 51°23.948 2°42.875 313.6 11.9 314 28.9
2009-02-20 09:05:49 51°23.959 2°42.857 313.7 11.9 315 27.8
2009-02-20 09:05:53 51°23.969 2°42.842 313.5 11.9 316 26.1
2009-02-20 09:05:59 51°23.983 2°42.82 313.7 11.8 315 23.6
2009-02-20 09:06:04 51°23.994 2°42.801 313.8 11.9 314 23.8
2009-02-20 09:06:09 51°24.006 2°42.782 312.9 11.8 315 25
2009-02-20 09:06:13 51°24.015 2°42.767 312.8 11.8 314 25.4
2009-02-20 09:06:18 51°24.026 2°42.749 312.7 11.8 314 25.7
2009-02-20 09:06:24 51°24.04 2°42.726 312.4 11.8 315 25.7
2009-02-20 09:06:29 51°24.052 2°42.707 312.8 11.8 315 25.7
2009-02-20 09:06:33 51°24.061 2°42.693 312.9 11.8 315 25.9
2009-02-20 09:06:38 51°24.072 2°42.674 313.4 11.8 314 26.4
2009-02-20 09:06:44 51°24.086 2°42.651 312.8 11.8 313 26.9
2009-02-20 09:06:49 51°24.097 2°42.632 311.7 11.8 313 27.3
2009-02-20 09:06:53 51°24.106 2°42.617 311.4 11.8 312 27.2
2009-02-20 09:06:58 51°24.117 2°42.597 310.8 11.8 312 27.3
2009-02-20 09:07:03 51°24.127 2°42.578 310.4 11.8 312 27.7
2009-02-20 09:07:09 51°24.141 2°42.554 310.4 11.8 312 27.9
2009-02-20 09:07:14 51°24.151 2°42.535 310.2 11.8 312 28.1
2009-02-20 09:07:18 51°24.16 2°42.519 310.4 11.8 312 27.9
2009-02-20 09:07:24 51°24.173 2°42.496 310.6 11.8 312 28.1
2009-02-20 09:07:29 51°24.184 2°42.476 310.3 11.8 312 28.5
2009-02-20 09:07:34 51°24.195 2°42.457 310.4 11.8 313 28.1
2009-02-20 09:07:38 51°24.205 2°42.442 311.3 11.8 314 27.6
2009-02-20 09:07:43 51°24.216 2°42.423 312.2 11.9 314 26.7
2009-02-20 09:07:49 51°24.23 2°42.4 312.3 11.9 315 26.2
2009-02-20 09:07:53 51°24.239 2°42.385 312.9 11.9 316 25.8
2009-02-20 09:07:58 51°24.251 2°42.367 313.9 11.9 316 25.4
2009-02-20 09:08:04 51°24.266 2°42.346 314.4 11.9 317 25.1
2009-02-20 09:08:09 51°24.278 2°42.328 315.1 11.9 316 24.5
2009-02-20 09:08:13 51°24.287 2°42.313 315.5 11.8 316 24
2009-02-20 09:08:19 51°24.301 2°42.291 314.7 11.9 316 24.8
2009-02-20 09:08:24 51°24.313 2°42.273 314.4 11.9 317 25.1
2009-02-20 09:08:29 51°24.326 2°42.255 314.8 11.9 317 25.4
2009-02-20 09:08:33 51°24.335 2°42.241 315.3 11.9 317 25.8
2009-02-20 09:08:39 51°24.35 2°42.219 315.4 11.9 317 26.4
2009-02-20 09:08:44 51°24.362 2°42.201 315.8 11.9 317 26.6
2009-02-20 09:08:49 51°24.374 2°42.183 315.5 11.9 317 26.9
2009-02-20 09:08:53 51°24.384 2°42.169 315.3 12 317 27.2
2009-02-20 09:08:58 51°24.396 2°42.151 315.6 12 317 27.7
2009-02-20 09:09:04 51°24.411 2°42.13 315.7 11.9 317 27.5
2009-02-20 09:09:09 51°24.423 2°42.111 315.7 11.9 317 28
2009-02-20 09:09:13 51°24.432 2°42.097 315.6 11.9 316 28
2009-02-20 09:09:18 51°24.444 2°42.078 315.2 11.9 315 28.4
2009-02-20 09:09:23 51°24.456 2°42.06 315.1 12 314 28.3
2009-02-20 09:09:29 51°24.47 2°42.037 314.6 12 316 28.7
2009-02-20 09:09:34 51°24.482 2°42.018 314.6 12 316 28.9
2009-02-20 09:09:38 51°24.491 2°42.003 315.1 12 315 28.2
2009-02-20 09:09:44 51°24.506 2°41.981 315.1 12 315 28.4
2009-02-20 09:09:49 51°24.518 2°41.962 315.3 12.1 315 28.9
2009-02-20 09:09:54 51°24.53 2°41.944 315.1 12.1 316 29.1
2009-02-20 09:09:58 51°24.539 2°41.929 315.1 12.1 316 28.7
2009-02-20 09:10:04 51°24.554 2°41.907 315.6 12.1 316 28.7
2009-02-20 09:10:09 51°24.565 2°41.888 315.4 12.1 316 27.9
2009-02-20 09:10:13 51°24.575 2°41.873 315.6 12 316 27.4
2009-02-20 09:10:18 51°24.587 2°41.855 315.2 12.1 316 27.5
2009-02-20 09:10:24 51°24.602 2°41.832 315.1 12.1 316 26.5
2009-02-20 09:10:29 51°24.613 2°41.814 315.1 12.1 315 26.2
2009-02-20 09:10:33 51°24.623 2°41.798 314.8 12 315 26
2009-02-20 09:10:38 51°24.634 2°41.779 314.1 12 314 25.5
2009-02-20 09:10:44 51°24.648 2°41.756 313.5 12 313 25.8
2009-02-20 09:10:49 51°24.66 2°41.737 312.9 12 314 25.4
2009-02-20 09:10:53 51°24.669 2°41.721 312.6 12 314 24.1
2009-02-20 09:10:59 51°24.683 2°41.698 312.5 12 314 24.6
2009-02-20 09:11:04 51°24.694 2°41.679 312.3 12 314 26.6
2009-02-20 09:11:09 51°24.706 2°41.66 312.6 12 314 28
2009-02-20 09:11:14 51°24.718 2°41.641 312.9 12 315 28.8
2009-02-20 09:11:18 51°24.727 2°41.626 313.6 12 315 28.8
2009-02-20 09:11:23 51°24.738 2°41.607 313.7 12 314 29.2
2009-02-20 09:11:29 51°24.753 2°41.584 313.6 12 314 27.4
2009-02-20 09:11:33 51°24.762 2°41.569 312.9 12 315 24.9
2009-02-20 09:11:38 51°24.774 2°41.55 312.8 12 315 23.7
2009-02-20 09:11:43 51°24.785 2°41.531 313.2 11.9 314 24
2009-02-20 09:11:49 51°24.799 2°41.509 312.8 12 314 26.1
2009-02-20 09:11:54 51°24.811 2°41.489 312.6 12 314 26.3
2009-02-20 09:11:58 51°24.82 2°41.474 312.4 11.9 315 26.7
2009-02-20 09:12:03 51°24.832 2°41.455 312.6 11.9 314 27.1
2009-02-20 09:12:09 51°24.846 2°41.432 312.9 12 314 27.5
2009-02-20 09:12:14 51°24.857 2°41.414 312.9 11.9 315 27.9
2009-02-20 09:12:18 51°24.867 2°41.398 313.1 12 314 28.7
2009-02-20 09:12:24 51°24.88 2°41.376 313.1 11.9 314 28.7
2009-02-20 09:12:29 51°24.892 2°41.357 312.9 12 315 27.5
2009-02-20 09:12:34 51°24.904 2°41.338 313.2 11.9 315 26.5
2009-02-20 09:12:39 51°24.916 2°41.319 313.3 11.9 315 26.7
2009-02-20 09:12:44 51°24.927 2°41.301 313.3 11.9 315 27.3
2009-02-20 09:12:49 51°24.939 2°41.282 313.1 11.9 315 27.9
2009-02-20 09:12:53 51°24.948 2°41.267 313.2 11.9 315 28
2009-02-20 09:12:58 51°24.96 2°41.248 313.5 12 317 28.3
2009-02-20 09:13:04 51°24.974 2°41.226 314.6 12 316 27.8
2009-02-20 09:13:09 51°24.986 2°41.208 314.7 12 317 28.2
2009-02-20 09:13:13 51°24.996 2°41.193 315.3 12 317 27.6
2009-02-20 09:13:18 51°25.008 2°41.175 315.8 12.1 317 27
2009-02-20 09:13:24 51°25.022 2°41.153 315.8 12 316 27.4
2009-02-20 09:13:29 51°25.034 2°41.135 314.8 11.9 315 27.5
2009-02-20 09:13:33 51°25.044 2°41.12 314.1 11.9 315 27.7
2009-02-20 09:13:38 51°25.056 2°41.102 313.9 11.9 315 28.2
2009-02-20 09:13:43 51°25.067 2°41.083 313.8 11.9 316 28
2009-02-20 09:13:49 51°25.081 2°41.061 313.9 11.9 315 26.8
2009-02-20 09:13:54 51°25.093 2°41.042 313.6 11.9 315 27.3
2009-02-20 09:13:58 51°25.102 2°41.027 312.9 12 315 27.1
2009-02-20 09:14:04 51°25.116 2°41.004 313.2 11.9 315 26.7
2009-02-20 09:14:09 51°25.128 2°40.986 313.4 11.9 315 26.7
2009-02-20 09:14:13 51°25.137 2°40.971 313.6 11.9 316 27.2
2009-02-20 09:14:18 51°25.149 2°40.952 313.7 11.9 316 26.3
2009-02-20 09:14:23 51°25.161 2°40.934 313.9 12 316 27.2
2009-02-20 09:14:29 51°25.175 2°40.911 313.9 12 316 27.5
2009-02-20 09:14:34 51°25.187 2°40.893 313.9 11.9 317 27.3
2009-02-20 09:14:38 51°25.197 2°40.879 314.3 11.9 316 28.2
2009-02-20 09:14:44 51°25.211 2°40.857 314.3 11.9 316 28.2
2009-02-20 09:14:49 51°25.223 2°40.838 313.6 11.9 315 28.1
2009-02-20 09:14:53 51°25.232 2°40.823 313.6 11.9 316 28.9
2009-02-20 09:14:58 51°25.244 2°40.804 313.6 11.9 315 29
2009-02-20 09:15:04 51°25.258 2°40.782 313.4 11.9 315 28.9
2009-02-20 09:15:09 51°25.269 2°40.763 313.3 11.9 315 27.9
2009-02-20 09:15:13 51°25.279 2°40.749 313.6 11.9 317 28.7
2009-02-20 09:15:19 51°25.293 2°40.727 314.6 12 317 29.4
2009-02-20 09:15:24 51°25.306 2°40.709 315.3 12 318 29.6
2009-02-20 09:15:29 51°25.318 2°40.691 316 12 317 30
2009-02-20 09:15:33 51°25.328 2°40.676 316.4 12 318 30.3
2009-02-20 09:15:38 51°25.341 2°40.659 316.5 11.9 318 29.8
2009-02-20 09:15:44 51°25.355 2°40.637 316.5 12 317 29.3
2009-02-20 09:15:49 51°25.367 2°40.619 316.1 12 317 29.4
2009-02-20 09:15:53 51°25.377 2°40.604 315.3 12 317 29.7